Saltar al contingut principal

Dades de l'estació automàtica Sant Llorenç Savall

Selector estació i data
?
?

Resum diari

21:00 TU
Dades diàries de l'estació meteorològica
Temperatura mitjana 19.5 °C
Temperatura màxima 25.3 °C 14:46 TU
Temperatura mínima 13.7 °C 2:54 TU
Humitat relativa mitjana 73%
Precipitació acumulada 0.0 mm
Ratxa màxima del vent (10 m) 23.0 km/h - 218º 10:47 TU

El tram horari està expressat en Temps Universal (TU). Cal sumar una hora en horari d'hivern i dues en horari d'estiu per passar a l'hora oficial.

Sant Llorenç Savall

Metadades estació meteorològica
Municipi Sant Llorenç Savall
Comarca Vallès Occidental
Altitud 528 m
Data alta 25.03.1998
Estat actual Operativa
Dades de període
Període
TU
TM
°C
TX
°C
TN
°C
HRM
%
PPT
mm
VVM (10 m)
km/h
DVM (10 m)
graus
VVX (10 m)
km/h
00:00 - 00:30 16.0 16.3 15.6 100 0.0 2.2 1 7.6
00:30 - 01:00 16.1 16.5 15.7 99 0.0 5.4 20 10.8
01:00 - 01:30 15.8 16.0 15.7 100 0.0 6.1 19 12.6
01:30 - 02:00 15.6 15.9 15.4 100 0.0 2.9 6 8.6
02:00 - 02:30 14.6 15.5 13.9 100 0.0 1.1 34 5.4
02:30 - 03:00 13.8 13.9 13.7 100 0.0 0.4 80 2.2
03:00 - 03:30 14.0 14.3 13.8 100 0.0 0.4 40 2.5
03:30 - 04:00 14.6 14.8 14.3 100 0.0 1.1 335 5.8
04:00 - 04:30 14.9 15.1 14.8 100 0.0 0.4 40 3.2
04:30 - 05:00 15.1 15.2 15.0 100 0.0 0.4 37 1.8
05:00 - 05:30 15.7 16.7 15.3 99 0.0 1.1 63 8.6
05:30 - 06:00 17.4 17.8 16.7 84 0.0 2.5 44 10.8
06:00 - 06:30 17.7 18.0 17.5 83 0.0 1.4 82 9.7
06:30 - 07:00 18.8 19.4 18.1 77 0.0 3.2 166 13.3
07:00 - 07:30 19.1 19.9 18.4 72 0.0 7.2 43 19.4
07:30 - 08:00 19.3 20.3 18.6 69 0.0 7.6 33 16.9
08:00 - 08:30 20.9 21.6 19.9 63 0.0 3.2 142 12.6
08:30 - 09:00 20.8 21.6 20.1 62 0.0 2.5 60 9.7
09:00 - 09:30 21.8 22.2 21.2 56 0.0 3.6 69 13.0
09:30 - 10:00 22.2 23.4 21.3 56 0.0 3.2 229 13.0
10:00 - 10:30 22.3 22.9 21.9 58 0.0 3.2 176 8.6
10:30 - 11:00 22.0 22.9 21.0 61 0.0 6.8 192 23.0
11:00 - 11:30 21.1 21.6 20.8 62 0.0 7.2 220 21.6
11:30 - 12:00 22.0 22.5 21.5 59 0.0 4.0 179 15.5
12:00 - 12:30 22.2 22.3 22.1 57 0.0 3.2 142 17.3
12:30 - 13:00 22.5 22.8 22.2 55 0.0 2.5 133 10.1
13:00 - 13:30 22.7 23.0 22.5 53 0.0 4.0 172 12.6
13:30 - 14:00 24.1 25.1 23.0 49 0.0 5.0 191 19.1
14:00 - 14:30 24.6 25.2 24.0 46 0.0 4.0 133 16.9
14:30 - 15:00 24.3 25.3 23.6 46 0.0 4.7 145 13.3
15:00 - 15:30 24.2 25.1 23.5 46 0.0 4.3 181 15.5
15:30 - 16:00 23.8 24.5 23.0 48 0.0 4.3 190 17.3
16:00 - 16:30 23.7 24.0 23.0 50 0.0 5.0 191 16.9
16:30 - 17:00 22.9 23.5 22.4 54 0.0 4.0 188 14.4
17:00 - 17:30 23.5 23.8 23.2 55 0.0 5.0 194 15.1
17:30 - 18:00 22.1 23.1 21.6 60 0.0 4.7 183 14.8
18:00 - 18:30 21.1 21.6 20.8 64 0.0 1.8 184 8.3
18:30 - 19:00 20.4 20.7 19.9 66 0.0 1.1 135 6.5
19:00 - 19:30 19.0 19.9 17.7 73 0.0 0.7 48 4.3
19:30 - 20:00 17.2 17.7 16.7 82 0.0 0.4 37 5.4
20:00 - 20:30 16.8 16.9 16.7 88 0.0 0.0 216 1.8
20:30 - 21:00 17.0 17.0 16.9 90 0.0 0.0 197 2.2
21:00 - 21:30 16.6 17.0 16.2 96 0.0 0.4 34 4.0
21:30 - 22:00 (s/d) (s/d) (s/d) (s/d) (s/d) (s/d) (s/d) (s/d)

Les dades en taronja només han passat un control de qualitat automàtic. Resta pendent la seva validació definitiva.